Time;durP1;ratioP1;P1;durP2;ratioP2;P2;SDS_P1;SDS_P2;PMS_P1;PMS_P2;Temp;Humidity;BMP_temperature;BMP_pressure;BME280_temperature;BME280_humidity;BME280_pressure;Samples;Min_cycle;Max_cycle;Signal;HPM_P1;HPM_P2
2023/11/02 00:01:14;;;;;;;15.52;7.20;;;;;;;10.84;76.29;93612.94;5041539;28;20014;-80
2023/11/02 00:03:41;;;;;;;15.30;7.15;;;;;;;10.81;76.00;93602.16;5042781;28;20020;-80
2023/11/02 00:06:13;;;;;;;17.48;6.95;;;;;;;10.80;75.85;93611.25;5041575;28;20308;-80
2023/11/02 00:08:39;;;;;;;20.67;7.70;;;;;;;10.83;76.17;93599.97;5042724;28;20025;-80
2023/11/02 00:11:06;;;;;;;13.52;7.15;;;;;;;10.83;75.84;93599.97;5042551;28;20017;-78
2023/11/02 00:13:31;;;;;;;15.32;7.68;;;;;;;10.85;76.22;93597.75;5042600;28;20021;-78
2023/11/02 00:15:57;;;;;;;22.52;8.75;;;;;;;10.82;76.31;93601.03;5042465;28;20029;-78
2023/11/02 00:18:25;;;;;;;21.67;7.60;;;;;;;10.85;76.60;93592.41;5042517;28;20029;-79
2023/11/02 00:20:54;;;;;;;19.52;7.75;;;;;;;10.78;76.48;93595.56;5042561;28;20026;-79
2023/11/02 00:23:39;;;;;;;20.45;9.07;;;;;;;10.75;77.21;93604.22;5041386;28;20327;-80
2023/11/02 00:26:05;;;;;;;19.23;7.57;;;;;;;10.62;77.45;93600.66;5042501;28;20037;-79
2023/11/02 00:28:31;;;;;;;16.95;7.53;;;;;;;10.62;77.65;93597.19;5042558;28;20071;-79
2023/11/02 00:30:56;;;;;;;14.73;7.88;;;;;;;10.58;78.06;93586.41;5042478;28;20023;-79
2023/11/02 00:33:22;;;;;;;28.92;9.02;;;;;;;10.62;78.04;93589.19;5042391;28;20029;-79
2023/11/02 00:35:50;;;;;;;17.80;8.63;;;;;;;10.57;78.37;93595.50;5042825;28;20026;-79
2023/11/02 00:38:18;;;;;;;22.35;8.57;;;;;;;10.58;78.27;93582.94;5042058;28;20130;-79
2023/11/02 00:40:44;;;;;;;16.48;7.97;;;;;;;10.54;78.26;93582.81;5046414;28;20036;-79
2023/11/02 00:43:09;;;;;;;19.08;8.00;;;;;;;10.47;78.76;93577.19;5046225;28;20025;-80
2023/11/02 00:45:38;;;;;;;15.73;8.32;;;;;;;10.50;78.99;93581.91;5045940;28;20051;-79
2023/11/02 00:48:25;;;;;;;17.42;8.73;;;;;;;10.48;79.03;93570.75;5046182;28;20029;-79
2023/11/02 00:51:09;;;;;;;18.02;7.95;;;;;;;10.58;78.07;93577.63;5045561;28;20146;-79
2023/11/02 00:53:40;;;;;;;17.05;7.55;;;;;;;10.60;77.83;93575.41;5045912;28;20030;-79
2023/11/02 00:56:07;;;;;;;16.05;8.02;;;;;;;10.59;78.41;93589.84;5045879;28;20033;-79
2023/11/02 00:58:33;;;;;;;16.67;9.00;;;;;;;10.61;78.21;93583.09;5045793;28;20072;-78
2023/11/02 01:01:03;;;;;;;21.27;8.73;;;;;;;10.63;77.35;93586.22;5045971;28;20056;-78
2023/11/02 01:03:28;;;;;;;18.65;8.55;;;;;;;10.61;77.29;93585.75;5045841;28;20025;-78
2023/11/02 01:05:55;;;;;;;26.17;10.43;;;;;;;10.57;77.70;93587.50;5045678;28;20096;-78
2023/11/02 01:08:30;;;;;;;20.80;9.43;;;;;;;10.56;77.05;93580.63;5044570;28;20100;-78
2023/11/02 01:10:55;;;;;;;23.70;9.88;;;;;;;10.54;76.97;93588.16;5045674;28;20028;-79
2023/11/02 01:13:21;;;;;;;17.13;8.48;;;;;;;10.52;77.27;93587.69;5045709;28;20022;-79
2023/11/02 01:16:09;;;;;;;19.15;9.27;;;;;;;10.51;77.39;93578.13;5045716;28;20025;-79
2023/11/02 01:18:38;;;;;;;26.27;9.98;;;;;;;10.50;76.94;93581.91;5045578;28;20315;-79
2023/11/02 01:21:05;;;;;;;18.02;9.20;;;;;;;10.50;77.27;93576.56;5045496;28;20223;-79
2023/11/02 01:23:35;;;;;;;17.65;9.63;;;;;;;10.52;77.20;93573.56;5045767;28;20247;-79
2023/11/02 01:26:02;;;;;;;23.88;9.55;;;;;;;10.53;76.56;93565.25;5044382;28;20223;-79
2023/11/02 01:28:53;;;;;;;22.95;8.38;;;;;;;10.55;75.66;93557.72;5045501;28;20085;-79
2023/11/02 01:31:21;;;;;;;16.38;8.18;;;;;;;10.51;76.04;93550.69;5045522;28;20033;-78
2023/11/02 01:34:03;;;;;;;16.88;8.25;;;;;;;10.54;76.11;93539.38;5045211;28;20025;-78
2023/11/02 01:36:29;;;;;;;;;;;;;;;10.57;76.58;93544.09;5045547;28;20238;-78
2023/11/02 01:39:13;;;;;;;20.70;9.48;;;;;;;10.59;77.00;93529.34;5045341;28;20016;-78
2023/11/02 01:42:08;;;;;;;18.30;8.82;;;;;;;10.67;76.75;93521.63;5044933;28;20040;-78
2023/11/02 01:44:49;;;;;;;20.35;8.52;;;;;;;10.74;77.01;93516.56;5045195;28;20228;-78
2023/11/02 01:48:02;;;;;;;19.88;8.50;;;;;;;10.78;77.30;93528.16;5045010;28;20029;-78
2023/11/02 01:50:33;;;;;;;17.13;7.72;;;;;;;10.84;77.00;93532.97;5024875;28;20049;-78
2023/11/02 01:53:04;;;;;;;15.20;8.55;;;;;;;10.85;76.16;93544.44;5044956;28;20037;-78
2023/11/02 01:55:46;;;;;;;23.83;9.00;;;;;;;10.73;76.02;93531.00;5044820;28;20057;-78
2023/11/02 02:01:58;;;;;;;21.00;10.02;;;;;;;10.60;77.84;93525.56;5044627;28;20037;-78
2023/11/02 02:05:03;;;;;;;13.45;7.97;;;;;;;10.63;78.75;93526.81;5044644;28;20282;-78
2023/11/02 02:07:37;;;;;;;19.50;9.20;;;;;;;10.69;78.51;93530.09;5044521;28;20101;-78
2023/11/02 02:10:11;;;;;;;19.40;9.25;;;;;;;10.69;77.54;93524.75;5044633;28;20021;-78
2023/11/02 02:12:53;;;;;;;15.55;8.25;;;;;;;10.65;77.95;93513.94;5044640;28;20032;-78
2023/11/02 02:15:31;;;;;;;19.92;8.90;;;;;;;10.61;78.11;93521.78;5044320;28;20100;-78
2023/11/02 02:18:03;;;;;;;22.77;10.27;;;;;;;10.70;78.08;93520.97;5044610;28;20227;-78
2023/11/02 02:20:33;;;;;;;14.77;8.75;;;;;;;10.78;78.17;93522.81;5043317;28;20025;-79
2023/11/02 02:23:28;;;;;;;22.20;8.75;;;;;;;10.82;78.27;93513.06;5044196;28;20029;-80
2023/11/02 02:25:56;;;;;;;19.85;9.52;;;;;;;10.84;78.45;93510.84;5044229;28;20204;-79
2023/11/02 02:28:28;;;;;;;17.80;8.82;;;;;;;10.86;78.83;93508.66;5044251;28;20103;-80
2023/11/02 02:31:21;;;;;;;19.48;9.00;;;;;;;10.91;79.21;93513.81;5044157;28;20033;-79
2023/11/02 02:34:05;;;;;;;19.13;8.75;;;;;;;10.99;79.12;93507.63;5044070;28;20095;-79
2023/11/02 02:36:33;;;;;;;17.88;8.07;;;;;;;11.00;78.13;93506.53;5044128;28;20029;-79
2023/11/02 02:39:06;;;;;;;14.45;7.55;;;;;;;10.98;77.86;93503.41;5043910;28;20025;-80
2023/11/02 02:41:39;;;;;;;16.50;8.05;;;;;;;10.98;77.00;93499.97;5044042;28;20029;-79
2023/11/02 02:44:08;;;;;;;20.50;9.93;;;;;;;10.93;76.25;93490.28;5044188;28;20013;-80
2023/11/02 02:46:36;;;;;;;19.27;8.27;;;;;;;10.91;76.57;93500.47;5043995;28;20072;-79
2023/11/02 02:49:01;;;;;;;17.73;8.13;;;;;;;10.86;77.74;93491.88;5043888;28;20056;-80
2023/11/02 02:51:29;;;;;;;20.35;8.73;;;;;;;10.85;77.20;93488.44;5043587;28;20025;-80
2023/11/02 02:53:59;;;;;;;14.82;8.38;;;;;;;10.80;77.18;93492.06;5043866;28;20021;-81
2023/11/02 02:56:25;;;;;;;16.95;8.23;;;;;;;10.76;76.96;93498.34;5043660;28;20088;-80
2023/11/02 02:58:58;;;;;;;28.48;9.25;;;;;;;10.75;76.70;93470.16;5058342;28;20033;-81
2023/11/02 03:01:28;;;;;;;19.88;9.02;;;;;;;10.82;76.16;93460.53;5042383;28;20088;-80
2023/11/02 03:03:56;;;;;;;22.67;7.90;;;;;;;10.82;76.29;93465.06;5043618;28;20331;-80
2023/11/02 03:06:22;;;;;;;13.27;7.93;;;;;;;10.85;76.80;93461.78;5043674;28;20196;-80
2023/11/02 03:08:50;;;;;;;20.55;8.43;;;;;;;10.93;76.72;93468.94;5043535;28;20017;-81
2023/11/02 03:11:17;;;;;;;15.95;8.80;;;;;;;10.94;76.66;93464.38;5043559;28;20319;-81
2023/11/02 03:13:46;;;;;;;17.55;8.25;;;;;;;10.93;76.82;93466.28;5042421;28;20029;-81
2023/11/02 03:16:16;;;;;;;16.98;8.18;;;;;;;11.02;77.09;93482.97;5042656;28;20021;-81
2023/11/02 03:18:41;;;;;;;18.08;7.78;;;;;;;11.05;77.18;93476.22;5042131;28;20025;-81
2023/11/02 03:21:07;;;;;;;13.80;8.23;;;;;;;11.10;76.69;93476.03;5043158;28;20323;-81
2023/11/02 03:23:59;;;;;;;22.15;8.82;;;;;;;11.12;76.75;93489.03;5042384;28;20331;-81
2023/11/02 03:26:39;;;;;;;16.98;8.48;;;;;;;11.09;77.33;93492.34;5043255;28;20048;-81
2023/11/02 03:29:33;;;;;;;15.27;8.25;;;;;;;11.00;77.45;93503.09;5043155;28;20026;-82
2023/11/02 03:32:19;;;;;;;15.95;8.43;;;;;;;10.96;77.66;93492.28;5040460;28;20128;-81
2023/11/02 03:35:03;;;;;;;18.02;9.13;;;;;;;10.91;77.77;93489.81;5043107;28;20076;-79
2023/11/02 03:37:37;;;;;;;14.68;8.00;;;;;;;11.00;78.04;93495.09;5041731;28;20327;-79
2023/11/02 03:40:19;;;;;;;20.40;8.30;;;;;;;10.98;77.66;93495.41;5043010;28;20025;-78
2023/11/02 03:43:00;;;;;;;15.63;8.50;;;;;;;10.97;76.92;93499.19;5042737;28;20096;-79
2023/11/02 03:45:37;;;;;;;13.15;7.70;;;;;;;10.77;76.54;93515.94;5043237;28;20215;-80
2023/11/02 03:48:26;;;;;;;15.73;7.95;;;;;;;10.72;77.22;93524.09;5042813;28;20033;-80
2023/11/02 03:51:03;;;;;;;13.60;7.75;;;;;;;10.68;78.07;93520.50;5042953;28;20139;-80
2023/11/02 03:53:40;;;;;;;18.35;9.40;;;;;;;10.68;78.26;93526.63;5042903;28;20212;-78
2023/11/02 03:56:16;;;;;;;22.42;8.52;;;;;;;10.68;78.64;93513.28;5042636;28;20022;-78
2023/11/02 03:59:04;;;;;;;16.17;8.63;;;;;;;10.67;78.69;93517.06;5041438;28;20041;-78
2023/11/02 04:01:59;;;;;;;16.45;8.27;;;;;;;10.59;78.91;93515.22;5041561;28;20303;-78
2023/11/02 04:04:45;;;;;;;17.77;8.13;;;;;;;10.52;79.48;93507.75;5041840;28;20402;-82
2023/11/02 04:07:25;;;;;;;14.63;8.38;;;;;;;10.55;80.20;93512.41;5042699;28;20033;-79
2023/11/02 04:10:05;;;;;;;13.63;7.90;;;;;;;10.63;80.53;93500.16;5042782;28;20106;-79
2023/11/02 04:12:37;;;;;;;18.65;8.57;;;;;;;10.67;80.96;93498.41;5042585;28;20021;-79
2023/11/02 04:15:05;;;;;;;20.02;10.23;;;;;;;10.74;81.76;93511.22;5046180;28;20024;-79
2023/11/02 04:17:31;;;;;;;14.88;7.32;;;;;;;10.81;81.89;93508.84;5046667;28;20044;-79
2023/11/02 04:19:57;;;;;;;17.85;8.05;;;;;;;10.83;82.15;93503.97;5046711;28;20025;-80
2023/11/02 04:22:22;;;;;;;16.08;8.43;;;;;;;10.83;81.87;93494.09;5046674;28;20052;-79
2023/11/02 04:24:48;;;;;;;20.23;9.57;;;;;;;10.87;82.12;93501.44;5046731;28;20025;-79
2023/11/02 04:27:13;;;;;;;18.17;8.25;;;;;;;10.95;82.60;93504.06;5046547;28;20014;-79
2023/11/02 04:29:39;;;;;;;16.10;8.45;;;;;;;10.99;82.58;93502.31;5046385;28;20025;-81
2023/11/02 04:32:04;;;;;;;22.88;9.13;;;;;;;10.91;82.04;93500.47;5046488;28;20029;-81
2023/11/02 04:34:30;;;;;;;16.60;7.95;;;;;;;10.92;81.94;93498.59;5046344;28;20317;-82
2023/11/02 04:36:56;;;;;;;17.20;8.80;;;;;;;10.95;81.46;93493.41;5046328;28;20021;-82
2023/11/02 04:39:22;;;;;;;20.30;9.35;;;;;;;10.97;81.46;93498.38;5046442;28;20132;-82
2023/11/02 04:41:47;;;;;;;17.98;8.50;;;;;;;10.93;81.73;93492.94;5046169;28;20033;-80
2023/11/02 04:44:13;;;;;;;14.55;8.70;;;;;;;10.99;81.56;93496.16;5045268;28;20025;-81
2023/11/02 04:46:38;;;;;;;15.30;8.98;;;;;;;10.95;82.02;93485.41;5046333;28;20013;-80
2023/11/02 04:49:04;;;;;;;14.90;8.57;;;;;;;10.96;82.37;93486.16;5046181;28;20231;-79
2023/11/02 04:51:29;;;;;;;18.10;9.95;;;;;;;11.02;82.34;93493.66;5046110;28;20223;-79
2023/11/02 04:53:56;;;;;;;18.02;8.65;;;;;;;11.03;82.17;93484.56;5046267;28;20304;-79
2023/11/02 04:56:22;;;;;;;16.90;9.35;;;;;;;11.03;82.08;93497.09;5046002;28;20051;-79
2023/11/02 04:58:47;;;;;;;20.70;9.68;;;;;;;11.10;81.78;93496.59;5046139;28;20108;-79
2023/11/02 05:01:13;;;;;;;20.20;9.63;;;;;;;11.13;81.14;93496.69;5045965;28;20040;-79
2023/11/02 05:03:38;;;;;;;19.08;8.95;;;;;;;11.15;80.96;93499.06;5045808;28;20025;-79
2023/11/02 05:06:04;;;;;;;19.20;9.52;;;;;;;11.13;81.21;93485.25;5045810;28;20022;-79
2023/11/02 05:08:29;;;;;;;13.30;8.70;;;;;;;11.16;81.12;93495.28;5045991;28;20029;-79
2023/11/02 05:10:55;;;;;;;22.30;9.27;;;;;;;11.17;80.76;93492.31;5045442;28;20431;-79
2023/11/02 05:13:20;;;;;;;21.75;9.90;;;;;;;11.18;80.58;93498.41;5045595;28;20029;-78
2023/11/02 05:15:46;;;;;;;28.92;12.25;;;;;;;11.15;80.86;93496.38;5044398;28;20033;-78
2023/11/02 05:18:12;;;;;;;17.13;9.95;;;;;;;11.14;80.83;93500.16;5045391;28;20026;-78
2023/11/02 05:20:37;;;;;;;25.88;11.93;;;;;;;11.16;81.42;93511.28;5045438;28;20021;-79
2023/11/02 05:23:02;;;;;;;22.65;10.75;;;;;;;11.22;81.78;93504.66;5045168;28;20024;-77
2023/11/02 05:25:28;;;;;;;19.30;10.52;;;;;;;11.30;81.79;93501.16;5044006;28;20033;-79
2023/11/02 05:27:53;;;;;;;25.25;10.68;;;;;;;11.29;82.03;93506.81;5045465;28;20025;-80
2023/11/02 05:30:19;;;;;;;25.25;11.43;;;;;;;11.24;81.82;93507.78;5045500;28;20044;-80
2023/11/02 05:32:44;;;;;;;22.70;11.35;;;;;;;11.22;81.79;93494.75;5045194;28;20017;-81
2023/11/02 05:35:10;;;;;;;18.83;10.25;;;;;;;11.25;82.03;93493.31;5043940;28;20025;-79
2023/11/02 05:37:36;;;;;;;23.02;10.05;;;;;;;11.25;82.37;93496.00;5045038;28;20021;-79
2023/11/02 05:40:02;;;;;;;17.45;9.18;;;;;;;11.30;82.03;93501.16;5044997;28;20231;-79
2023/11/02 05:42:28;;;;;;;22.65;10.27;;;;;;;11.29;81.85;93496.91;5045129;28;20250;-79
2023/11/02 05:44:53;;;;;;;20.75;11.18;;;;;;;11.33;81.34;93505.81;5045190;28;20040;-79
2023/11/02 05:47:19;;;;;;;18.70;9.93;;;;;;;11.33;81.06;93497.81;5045162;28;20022;-79
2023/11/02 05:49:44;;;;;;;20.33;10.20;;;;;;;11.34;80.85;93496.72;5044744;28;20017;-79
2023/11/02 05:52:10;;;;;;;19.80;9.77;;;;;;;11.37;80.60;93505.97;5044820;28;20025;-79
2023/11/02 05:54:36;;;;;;;20.48;11.13;;;;;;;11.32;80.85;93509.59;5044767;28;20029;-80
2023/11/02 05:57:05;;;;;;;20.85;10.68;;;;;;;11.38;80.97;93512.88;5044724;28;20018;-79
2023/11/02 05:59:31;;;;;;;21.85;9.73;;;;;;;11.40;80.94;93511.44;5044491;28;20034;-79
2023/11/02 06:02:00;;;;;;;16.83;10.20;;;;;;;11.39;81.31;93511.75;5044585;28;20021;-79
2023/11/02 06:04:26;;;;;;;22.52;11.15;;;;;;;11.43;81.67;93501.97;5044485;28;20048;-79
2023/11/02 06:06:51;;;;;;;21.58;11.73;;;;;;;11.41;81.68;93502.31;5044538;28;20040;-79
2023/11/02 06:09:24;;;;;;;17.95;11.70;;;;;;;11.44;81.67;93511.56;5044862;28;20064;-79
2023/11/02 06:11:49;;;;;;;20.95;11.63;;;;;;;11.47;81.71;93502.13;5044733;28;20040;-79
2023/11/02 06:14:15;;;;;;;20.65;11.23;;;;;;;11.33;82.08;93508.50;5044374;28;20021;-79
2023/11/02 06:16:40;;;;;;;22.05;11.43;;;;;;;11.31;82.22;93484.03;5044333;28;20032;-79
2023/11/02 06:19:06;;;;;;;24.90;12.02;;;;;;;11.28;82.81;93482.03;5044389;28;20017;-79
2023/11/02 06:21:31;;;;;;;27.88;12.52;;;;;;;11.39;82.95;93493.84;5044315;28;20021;-79
2023/11/02 06:23:57;;;;;;;22.48;11.02;;;;;;;11.42;83.16;93489.75;5044375;28;20013;-79
2023/11/02 06:26:22;;;;;;;21.85;11.32;;;;;;;11.43;83.27;93484.06;5044072;28;20017;-79
2023/11/02 06:28:48;;;;;;;23.05;10.80;;;;;;;11.47;83.36;93489.53;5044364;28;20017;-79
2023/11/02 06:31:13;;;;;;;23.15;12.30;;;;;;;11.57;83.24;93489.16;5043909;28;20017;-79
2023/11/02 06:33:39;;;;;;;16.60;10.10;;;;;;;11.64;82.67;93493.94;5044075;28;20017;-79
2023/11/02 06:36:05;;;;;;;18.52;10.18;;;;;;;11.73;82.46;93492.00;5043638;28;20029;-81
2023/11/02 06:38:31;;;;;;;18.10;9.88;;;;;;;11.75;82.19;93500.44;5044153;28;20022;-80
2023/11/02 06:40:56;;;;;;;14.80;9.82;;;;;;;11.69;81.81;93495.66;5043800;28;20027;-82
2023/11/02 06:43:22;;;;;;;18.10;9.55;;;;;;;11.71;81.61;93499.53;5043652;28;20017;-79
2023/11/02 06:45:48;;;;;;;16.63;9.40;;;;;;;11.69;81.22;93499.09;5043794;28;20018;-80
2023/11/02 06:48:13;;;;;;;19.55;8.95;;;;;;;11.78;80.48;93502.44;5044057;28;20307;-85
2023/11/02 06:50:38;;;;;;;18.20;9.57;;;;;;;11.74;80.42;93493.53;5044245;28;20033;-84
2023/11/02 06:53:04;;;;;;;21.73;10.55;;;;;;;11.70;80.14;93499.88;5043887;28;20342;-85
2023/11/02 06:55:30;;;;;;;18.88;10.52;;;;;;;11.65;80.06;93498.19;5042667;28;20029;-84
2023/11/02 06:57:55;;;;;;;19.55;9.38;;;;;;;11.63;79.66;93498.50;5044051;28;20067;-83
2023/11/02 07:00:21;;;;;;;21.02;10.30;;;;;;;11.75;79.28;93505.00;5044162;28;20278;-84
2023/11/02 07:02:47;;;;;;;21.27;10.15;;;;;;;11.84;79.36;93501.16;5059748;28;20056;-84
2023/11/02 07:05:12;;;;;;;19.50;10.10;;;;;;;11.90;79.48;93509.75;5043728;28;20027;-83
2023/11/02 07:07:40;;;;;;;22.50;11.35;;;;;;;11.92;79.70;93504.88;5044119;28;20021;-83
2023/11/02 07:10:08;;;;;;;25.17;12.60;;;;;;;11.94;79.77;93499.19;5043858;28;20059;-84
2023/11/02 07:12:34;;;;;;;21.27;10.18;;;;;;;12.00;80.10;93500.56;5043812;28;20014;-86
2023/11/02 07:14:59;;;;;;;24.40;11.02;;;;;;;12.03;79.58;93503.34;5043975;28;20211;-89
2023/11/02 07:17:26;;;;;;;23.98;11.15;;;;;;;12.03;79.15;93489.22;5043109;28;20017;-90
2023/11/02 07:19:51;;;;;;;21.65;11.77;;;;;;;11.88;78.76;93495.16;5043925;28;20025;-85
2023/11/02 07:22:17;;;;;;;22.85;12.57;;;;;;;11.86;78.33;93487.47;5042744;28;20059;-85
2023/11/02 07:24:42;;;;;;;24.48;12.40;;;;;;;11.65;79.15;93484.84;5042337;28;20017;-84
2023/11/02 07:27:08;;;;;;;25.52;12.07;;;;;;;11.64;79.43;93494.75;5042213;28;20264;-85
2023/11/02 07:29:33;;;;;;;23.13;12.60;;;;;;;11.74;79.26;93495.44;5043753;28;20038;-86
2023/11/02 07:31:59;;;;;;;22.23;11.95;;;;;;;11.85;79.06;93497.38;5058750;28;20295;-87
2023/11/02 07:34:27;;;;;;;23.27;12.88;;;;;;;11.88;79.01;93498.59;5043515;28;20021;-81
2023/11/02 07:36:54;;;;;;;20.88;11.68;;;;;;;11.84;78.66;93487.81;5058777;28;20028;-81
2023/11/02 07:39:20;;;;;;;19.23;11.73;;;;;;;11.87;79.05;93482.91;5043131;28;20032;-76
2023/11/02 07:41:45;;;;;;;21.73;12.45;;;;;;;11.85;79.19;93484.00;5043239;28;20017;-76
2023/11/02 07:44:11;;;;;;;20.10;10.90;;;;;;;11.87;78.68;93485.59;5042875;28;20258;-76
2023/11/02 07:46:36;;;;;;;28.75;12.60;;;;;;;11.82;78.82;93482.03;5042943;28;20248;-76
2023/11/02 07:49:02;;;;;;;25.70;11.50;;;;;;;11.82;79.54;93490.03;5042190;28;20048;-76
2023/11/02 07:51:29;;;;;;;21.70;12.18;;;;;;;11.91;80.07;93487.28;5041813;28;20068;-76
2023/11/02 07:53:54;;;;;;;32.08;13.32;;;;;;;11.93;79.29;93487.75;5042727;28;20044;-76
2023/11/02 07:56:20;;;;;;;25.70;13.40;;;;;;;11.88;79.19;93484.47;5042784;28;20021;-76
2023/11/02 07:58:45;;;;;;;29.40;13.10;;;;;;;11.85;80.04;93492.03;5042941;28;20164;-75
2023/11/02 08:01:11;;;;;;;31.05;14.52;;;;;;;11.88;80.73;93481.78;5042689;28;20045;-76
2023/11/02 08:03:37;;;;;;;29.38;13.05;;;;;;;11.88;80.13;93485.25;5042555;28;20017;-75
2023/11/02 08:06:03;;;;;;;24.88;12.98;;;;;;;11.87;80.12;93486.38;5042769;28;20013;-76
2023/11/02 08:08:29;;;;;;;29.42;14.00;;;;;;;11.92;80.33;93480.06;5042834;28;20017;-76
2023/11/02 08:10:55;;;;;;;25.40;13.30;;;;;;;12.00;80.49;93484.53;5042600;28;20224;-76
2023/11/02 08:13:21;;;;;;;28.08;14.30;;;;;;;12.04;79.96;93490.75;5042575;28;20033;-74
2023/11/02 08:15:46;;;;;;;32.28;15.88;;;;;;;12.10;79.47;93476.09;5042690;28;20211;-79
2023/11/02 08:18:14;;;;;;;24.98;12.90;;;;;;;12.07;79.90;93476.75;5042521;28;20021;-79
2023/11/02 08:20:40;;;;;;;26.65;13.65;;;;;;;11.93;79.93;93473.63;5042740;28;20375;-79
2023/11/02 08:23:05;;;;;;;25.65;13.32;;;;;;;11.71;80.64;93480.09;5042669;28;20048;-78
2023/11/02 08:25:31;;;;;;;28.98;12.43;;;;;;;11.89;80.83;93483.41;5042437;28;20284;-80
2023/11/02 08:27:59;;;;;;;25.15;13.20;;;;;;;12.12;80.78;93483.78;5041430;28;20096;-78
2023/11/02 08:30:25;;;;;;;25.83;13.32;;;;;;;12.20;79.53;93482.91;5042590;28;20043;-79
2023/11/02 08:32:52;;;;;;;26.48;13.43;;;;;;;12.39;78.64;93475.09;5042504;28;20255;-77
2023/11/02 08:35:18;;;;;;;26.83;14.40;;;;;;;12.49;78.09;93479.25;5042578;28;20127;-77
2023/11/02 08:37:44;;;;;;;25.00;13.55;;;;;;;12.58;78.34;93471.91;5042355;28;20021;-76
2023/11/02 08:40:10;;;;;;;23.83;13.30;;;;;;;12.69;78.44;93482.91;5042351;28;20024;-78
2023/11/02 08:42:35;;;;;;;27.48;13.95;;;;;;;12.80;78.33;93473.34;5041260;28;20021;-78
2023/11/02 08:45:01;;;;;;;27.73;14.07;;;;;;;12.94;77.75;93462.28;5042364;28;20017;-78
2023/11/02 08:47:27;;;;;;;24.83;13.35;;;;;;;13.09;77.07;93465.38;5041190;28;20056;-78
2023/11/02 08:49:53;;;;;;;24.83;12.88;;;;;;;13.21;76.36;93468.03;5042133;28;20017;-77
2023/11/02 08:52:18;;;;;;;23.40;13.93;;;;;;;13.33;74.06;93465.34;5042366;28;20025;-78
2023/11/02 08:54:44;;;;;;;24.42;12.40;;;;;;;13.32;73.69;93450.41;5042222;28;20896;-78
2023/11/02 08:57:09;;;;;;;24.00;12.50;;;;;;;13.36;74.85;93451.28;5042169;28;20040;-78
2023/11/02 08:59:35;;;;;;;24.75;14.13;;;;;;;13.31;74.51;93445.38;5043316;28;20155;-78
2023/11/02 09:02:00;;;;;;;26.45;13.23;;;;;;;13.40;74.42;93452.16;5044738;28;20021;-78
2023/11/02 09:04:28;;;;;;;33.10;14.20;;;;;;;13.55;74.24;93455.22;5045910;28;20088;-78
2023/11/02 09:06:54;;;;;;;25.58;12.15;;;;;;;13.73;72.45;93453.03;5045671;28;20036;-78
2023/11/02 09:09:19;;;;;;;21.83;13.02;;;;;;;13.76;71.45;93444.28;5045759;28;20327;-78
2023/11/02 09:11:45;;;;;;;33.17;14.68;;;;;;;13.75;72.73;93446.19;5044506;28;20321;-79
2023/11/02 09:14:11;;;;;;;24.75;13.38;;;;;;;13.74;72.76;93441.97;5045780;28;20112;-77
2023/11/02 09:16:37;;;;;;;28.38;14.48;;;;;;;13.62;73.67;93444.72;5045732;28;20028;-77
2023/11/02 09:19:03;;;;;;;22.85;14.32;;;;;;;13.61;73.70;93443.91;5045704;28;20045;-79
2023/11/02 09:21:30;;;;;;;38.90;16.25;;;;;;;13.67;73.96;93433.75;5045541;28;20024;-77
2023/11/02 09:23:56;;;;;;;28.38;14.95;;;;;;;13.69;74.06;93430.72;5045719;28;20033;-79
2023/11/02 09:26:21;;;;;;;24.90;15.60;;;;;;;13.75;74.57;93424.78;5045660;28;20059;-77
2023/11/02 09:28:49;;;;;;;25.65;15.00;;;;;;;13.87;74.58;93425.84;5045617;28;20240;-78
2023/11/02 09:31:17;;;;;;;27.98;14.38;;;;;;;13.97;73.78;93415.38;5045546;28;20030;-78
2023/11/02 09:33:42;;;;;;;30.83;15.20;;;;;;;14.13;72.98;93412.72;5045354;28;20040;-78
2023/11/02 09:36:08;;;;;;;27.88;15.52;;;;;;;14.01;73.29;93412.81;5044208;28;20030;-80
2023/11/02 09:38:34;;;;;;;28.88;15.20;;;;;;;14.10;72.26;93413.41;5045377;28;20057;-78
2023/11/02 09:41:00;;;;;;;26.38;13.50;;;;;;;14.34;71.26;93409.00;5045294;28;20350;-78
2023/11/02 09:43:26;;;;;;;27.73;13.93;;;;;;;14.40;70.58;93411.06;5045262;28;20040;-78
2023/11/02 09:45:52;;;;;;;23.13;13.43;;;;;;;14.39;69.85;93414.09;5045082;28;20021;-78
2023/11/02 09:48:17;;;;;;;27.70;14.10;;;;;;;14.17;70.41;93407.47;5044167;28;20040;-78
2023/11/02 09:50:43;;;;;;;30.67;14.38;;;;;;;14.16;71.17;93403.97;5045116;28;20219;-78
2023/11/02 09:53:09;;;;;;;29.80;13.95;;;;;;;14.24;71.13;93396.88;5043824;28;20025;-79
2023/11/02 09:55:38;;;;;;;28.90;13.60;;;;;;;14.36;71.37;93398.69;5044718;28;20031;-78
2023/11/02 09:58:06;;;;;;;22.10;13.18;;;;;;;14.54;70.83;93391.84;5044657;28;20247;-78
2023/11/02 10:00:31;;;;;;;26.85;13.95;;;;;;;14.73;70.13;93382.31;5060003;28;20223;-78
2023/11/02 10:02:56;;;;;;;27.98;14.02;;;;;;;14.89;69.23;93387.63;5044646;28;20021;-79
2023/11/02 10:05:24;;;;;;;33.70;15.32;;;;;;;15.10;68.86;93384.63;5044301;28;20017;-79
2023/11/02 10:07:50;;;;;;;24.27;13.25;;;;;;;15.21;66.55;93375.66;5044746;28;20044;-78
2023/11/02 10:10:16;;;;;;;24.77;13.25;;;;;;;15.14;67.96;93378.22;5044719;28;20028;-82
2023/11/02 10:12:41;;;;;;;24.77;12.65;;;;;;;15.11;67.26;93376.22;5044579;28;20021;-77
2023/11/02 10:15:09;;;;;;;22.30;13.05;;;;;;;15.07;68.13;93375.38;5044264;28;20080;-75
2023/11/02 10:17:41;;;;;;;25.33;14.48;;;;;;;15.05;66.96;93362.28;5042889;28;20026;-75
2023/11/02 10:20:14;;;;;;;25.33;14.47;;;;;;;15.17;66.62;93363.28;5040638;28;20047;-75
2023/11/02 10:22:42;;;;;;;21.45;13.88;;;;;;;15.09;66.30;93358.91;5041685;28;20705;-75
2023/11/02 10:25:13;;;;;;;26.60;13.68;;;;;;;15.05;66.79;93350.78;5042047;28;20037;-75
2023/11/02 10:27:41;;;;;;;24.95;13.07;;;;;;;15.10;66.80;93349.72;5041634;28;20055;-76
2023/11/02 10:30:07;;;;;;;24.35;12.20;;;;;;;15.18;65.99;93354.91;5041941;28;20025;-75
2023/11/02 10:32:34;;;;;;;25.13;12.20;;;;;;;15.13;66.36;93344.44;5041087;28;20049;-75
2023/11/02 10:35:00;;;;;;;25.13;12.27;;;;;;;15.11;65.70;93357.44;5041621;28;20093;-75
2023/11/02 10:37:30;;;;;;;24.80;13.02;;;;;;;15.04;66.59;93363.44;5041771;28;20025;-75
2023/11/02 10:39:56;;;;;;;22.15;12.38;;;;;;;14.86;66.84;93362.28;5042105;28;20029;-75
2023/11/02 10:42:24;;;;;;;24.67;12.55;;;;;;;14.70;67.79;93358.88;5043017;28;20079;-75
2023/11/02 10:44:51;;;;;;;22.77;13.38;;;;;;;14.59;68.47;93361.31;5043147;28;20028;-75
2023/11/02 10:47:19;;;;;;;24.95;13.85;;;;;;;14.50;68.28;93364.16;5043267;28;20025;-75
2023/11/02 10:49:44;;;;;;;25.77;13.60;;;;;;;14.46;69.06;93366.00;5043113;28;20029;-75
2023/11/02 10:52:18;;;;;;;30.23;14.68;;;;;;;14.34;69.34;93363.41;5043640;28;20033;-75
2023/11/02 10:55:12;;;;;;;27.10;13.80;;;;;;;14.17;70.42;93361.91;5043634;28;20197;-75
2023/11/02 10:57:40;;;;;;;33.58;16.52;;;;;;;14.07;70.80;93365.88;5034331;28;20120;-74
2023/11/02 11:00:07;;;;;;;23.42;13.80;;;;;;;14.04;71.12;93371.91;5042924;28;20037;-75
2023/11/02 11:02:35;;;;;;;30.70;14.57;;;;;;;13.99;71.79;93361.47;5043327;28;20040;-74
2023/11/02 11:05:05;;;;;;;29.00;16.13;;;;;;;13.95;72.36;93369.41;5043511;28;20017;-74
2023/11/02 11:07:33;;;;;;;31.10;15.05;;;;;;;13.92;72.08;93362.06;5058806;28;20028;-74
2023/11/02 11:10:00;;;;;;;35.00;15.35;;;;;;;13.92;71.94;93353.25;5043135;28;20414;-74
2023/11/02 11:12:26;;;;;;;26.80;15.32;;;;;;;13.90;72.36;93347.44;5043261;28;20045;-74
2023/11/02 11:14:53;;;;;;;24.83;15.05;;;;;;;13.91;72.29;93351.69;5043271;28;20108;-75
2023/11/02 11:17:19;;;;;;;37.75;17.30;;;;;;;13.93;73.23;93344.88;5043207;28;20021;-74
2023/11/02 11:19:44;;;;;;;30.58;15.40;;;;;;;13.94;72.75;93326.88;5043168;28;20070;-74
2023/11/02 11:22:15;;;;;;;26.98;15.43;;;;;;;14.07;72.72;93328.34;5042761;28;20023;-74
2023/11/02 11:24:44;;;;;;;34.20;15.50;;;;;;;14.27;72.27;93325.72;5042435;28;20150;-74
2023/11/02 11:27:10;;;;;;;33.40;16.05;;;;;;;14.48;72.08;93326.19;5042862;28;20013;-74
2023/11/02 11:29:41;;;;;;;26.85;15.77;;;;;;;14.87;72.21;93318.22;5042997;28;20048;-75
2023/11/02 11:32:34;;;;;;;31.17;16.58;;;;;;;15.25;70.08;93313.97;5042662;28;20029;-74
2023/11/02 11:35:03;;;;;;;28.65;15.30;;;;;;;15.55;67.61;93310.66;5037748;28;20041;-75